< < Back
Terminal Aerodrome Forecast


Current Version              Previous Versions:   1  2  3  4  5  6  7  8  9  

Terminal Aerodrome Forecast

507
FTUS42 KJAX 031312 AAA
TAFJAX
TAF AMD
KJAX 031312Z 0313/0412 24010KT P6SM SCT015 BKN200
     FM031400 24010KT P6SM VCSH SCT025 BKN050
     FM031900 22012KT P6SM VCTS BKN040CB
     FM040000 23005KT P6SM VCSH SCT040 BKN120=



Latest METAR

535
SAUS80 KWBC 031600 CCA
MTRJAX
METAR KJAX 031556Z 25014KT 10SM SCT034 SCT070 BKN250 28/19 A2992 RMK AO2
SLP133 T02780194


USA.gov is the U.S. government's official web portal to all federal, state and local government web resources and services.